createdAt,value
2023-08-02T00:02:40.105Z,94610.34
2023-08-02T00:05:42.683Z,94596.03
2023-08-02T00:08:45.111Z,94616.59
2023-08-02T00:11:47.648Z,94597.59
2023-08-02T00:14:51.567Z,94614.63
2023-08-02T00:17:54.161Z,94612.31
2023-08-02T00:20:56.799Z,94603.88
2023-08-02T00:23:59.361Z,94600.31
2023-08-02T00:27:01.976Z,94620.16
2023-08-02T00:30:07.115Z,94624.03
2023-08-02T00:33:09.696Z,94615.50
2023-08-02T00:36:12.354Z,94624.44
2023-08-02T00:39:14.918Z,94609.34
2023-08-02T00:42:17.478Z,94621.72
2023-08-02T00:45:21.324Z,94613.53
2023-08-02T00:48:24.883Z,94617.91
2023-08-02T00:51:31.531Z,94612.00
2023-08-02T00:54:34.431Z,94612.75
2023-08-02T00:57:37.132Z,94594.19
2023-08-02T01:00:41.052Z,94579.50
2023-08-02T01:03:45.621Z,94610.44
2023-08-02T01:06:53.097Z,94591.81
2023-08-02T01:10:05.028Z,94605.03
2023-08-02T01:13:09.507Z,94610.88
2023-08-02T01:16:13.992Z,94601.88
2023-08-02T01:19:22.435Z,94602.31
2023-08-02T01:22:26.400Z,94618.25
2023-08-02T01:25:33.524Z,94597.72
2023-08-02T01:28:40.714Z,94605.81
2023-08-02T01:31:44.384Z,94609.72
2023-08-02T01:34:47.585Z,94594.94
2023-08-02T01:37:51.478Z,94587.69
2023-08-02T01:40:54.002Z,94596.19
2023-08-02T01:43:56.545Z,94600.38
2023-08-02T01:46:59.160Z,94591.19
2023-08-02T01:50:01.823Z,94603.88
2023-08-02T01:53:05.775Z,94603.13
2023-08-02T01:56:08.655Z,94603.53
2023-08-02T01:59:13.266Z,94598.06
2023-08-02T02:02:17.254Z,94605.88
2023-08-02T02:05:19.923Z,94591.88
2023-08-02T02:08:24.407Z,94607.41
2023-08-02T02:11:26.970Z,94594.63
2023-08-02T02:14:29.872Z,94591.13
2023-08-02T02:17:32.699Z,94596.91
2023-08-02T02:20:35.461Z,94591.13
2023-08-02T02:23:39.856Z,94583.31
2023-08-02T02:26:42.779Z,94586.81
2023-08-02T02:29:45.638Z,94560.53
2023-08-02T02:32:48.295Z,94590.72
2023-08-02T02:35:51.163Z,94569.41
2023-08-02T02:38:55.097Z,94579.47
2023-08-02T02:41:57.958Z,94579.47
2023-08-02T02:45:00.872Z,94584.94
2023-08-02T02:48:03.782Z,94575.19
2023-08-02T02:51:06.428Z,94560.50
2023-08-02T02:54:10.411Z,94567.00
2023-08-02T02:57:12.998Z,94570.91
2023-08-02T03:00:15.655Z,94566.66
2023-08-02T03:03:18.262Z,94572.09
2023-08-02T03:06:20.977Z,94576.78
2023-08-02T03:09:24.913Z,94577.97
2023-08-02T03:12:27.491Z,94582.22
2023-08-02T03:15:30.121Z,94580.69
2023-08-02T03:18:32.686Z,94577.16
2023-08-02T03:21:35.209Z,94570.94
2023-08-02T03:24:39.264Z,94576.81
2023-08-02T03:27:41.780Z,94566.75
2023-08-02T03:30:44.433Z,94568.63
2023-08-02T03:33:47.150Z,94565.97
2023-08-02T03:36:49.739Z,94568.25
2023-08-02T03:39:53.796Z,94568.25
2023-08-02T03:42:56.320Z,94565.53
2023-08-02T03:45:59.332Z,94552.75
2023-08-02T03:49:01.926Z,94576.44
2023-08-02T03:52:05.220Z,94552.78
2023-08-02T03:55:10.095Z,94562.94
2023-08-02T03:58:12.895Z,94576.50
2023-08-02T04:01:15.601Z,94554.34
2023-08-02T04:04:18.162Z,94569.44
2023-08-02T04:07:20.801Z,94577.63
2023-08-02T04:10:25.770Z,94562.56
2023-08-02T04:13:28.258Z,94570.63
2023-08-02T04:16:30.922Z,94567.13
2023-08-02T04:19:33.640Z,94552.78
2023-08-02T04:22:36.350Z,94576.06
2023-08-02T04:25:40.321Z,94564.41
2023-08-02T04:28:42.873Z,94554.03
2023-08-02T04:31:45.606Z,94566.34
2023-08-02T04:34:48.254Z,94564.47
2023-08-02T04:37:50.818Z,94575.31
2023-08-02T04:40:55.019Z,94573.00
2023-08-02T04:43:57.680Z,94543.09
2023-08-02T04:47:00.320Z,94565.59
2023-08-02T04:50:03.051Z,94570.63
2023-08-02T04:53:05.675Z,94566.81
2023-08-02T04:56:11.566Z,94575.34
2023-08-02T04:59:14.843Z,94564.03
2023-08-02T05:02:17.547Z,94547.66
2023-08-02T05:05:20.340Z,94550.00
2023-08-02T05:08:22.864Z,94545.28
2023-08-02T05:11:26.716Z,94540.22
2023-08-02T05:14:29.740Z,94535.97
2023-08-02T05:17:32.533Z,94535.59
2023-08-02T05:20:35.321Z,94524.00
2023-08-02T05:23:37.867Z,94518.13
2023-08-02T05:26:41.808Z,94522.34
2023-08-02T05:29:45.218Z,94518.56
2023-08-02T05:32:49.318Z,94533.69
2023-08-02T05:35:51.902Z,94531.72
2023-08-02T05:38:54.478Z,94509.59
2023-08-02T05:41:58.346Z,94509.91
2023-08-02T05:45:00.962Z,94522.34
2023-08-02T05:48:03.453Z,94502.91
2023-08-02T05:51:06.096Z,94508.72
2023-08-02T05:54:08.665Z,94515.34
2023-08-02T05:57:12.603Z,94506.81
2023-08-02T06:00:15.788Z,94494.47
2023-08-02T06:03:18.539Z,94499.06
2023-08-02T06:06:21.243Z,94508.72
2023-08-02T06:09:23.827Z,94501.81
2023-08-02T06:12:28.041Z,94520.41
2023-08-02T06:15:31.241Z,94507.25
2023-08-02T06:18:33.872Z,94522.31
2023-08-02T06:21:36.604Z,94518.41
2023-08-02T06:24:39.128Z,94524.28
2023-08-02T06:27:42.896Z,94504.00
2023-08-02T06:30:45.467Z,94509.56
2023-08-02T06:33:48.013Z,94499.03
2023-08-02T06:36:50.428Z,94525.81
2023-08-02T06:39:53.023Z,94520.34
2023-08-02T06:42:56.927Z,94518.81
2023-08-02T06:45:59.637Z,94500.91
2023-08-02T06:49:02.281Z,94489.19
2023-08-02T06:52:05.387Z,94499.00
2023-08-02T06:55:08.906Z,94492.28
2023-08-02T06:58:12.847Z,94473.22
2023-08-02T07:01:16.205Z,94487.84
2023-08-02T07:04:19.059Z,94485.50
2023-08-02T07:07:21.809Z,94469.63
2023-08-02T07:10:24.656Z,94486.31
2023-08-02T07:13:29.098Z,94487.00
2023-08-02T07:16:31.896Z,94497.72
2023-08-02T07:19:34.811Z,94489.59
2023-08-02T07:22:37.416Z,94466.28
2023-08-02T07:25:39.979Z,94449.91
2023-08-02T07:28:43.967Z,94459.91
2023-08-02T07:31:46.594Z,94462.69
2023-08-02T07:34:49.227Z,94478.63
2023-08-02T07:37:51.882Z,94459.59
2023-08-02T07:40:54.513Z,94463.03
2023-08-02T07:43:58.399Z,94459.84
2023-08-02T07:47:01.191Z,94459.81
2023-08-02T07:50:04.363Z,94437.97
2023-08-02T07:53:06.946Z,94437.16
2023-08-02T07:56:10.064Z,94427.06
2023-08-02T07:59:14.127Z,94452.72
2023-08-02T08:02:16.999Z,94439.81
2023-08-02T08:05:19.625Z,94443.28
2023-08-02T08:08:22.237Z,94462.53
2023-08-02T08:11:28.193Z,94457.69
2023-08-02T08:14:32.056Z,94468.31
2023-08-02T08:17:34.642Z,94466.56
2023-08-02T08:20:37.325Z,94453.63
2023-08-02T08:23:40.281Z,94454.00
2023-08-02T08:26:42.831Z,94474.84
2023-08-02T08:29:47.034Z,94452.28
2023-08-02T08:32:49.607Z,94452.78
2023-08-02T08:35:52.165Z,94456.00
2023-08-02T08:38:55.045Z,94455.19
2023-08-02T08:41:58.886Z,94456.84
2023-08-02T08:45:04.284Z,94444.44
2023-08-02T08:48:07.421Z,94447.66
2023-08-02T08:51:11.240Z,94430.97
2023-08-02T08:54:39.812Z,94419.78
2023-08-02T09:07:24.414Z,94387.28
2023-08-02T09:10:29.471Z,94391.63
2023-08-02T09:13:32.183Z,94381.03
2023-08-02T09:16:36.656Z,94386.63
2023-08-02T09:19:41.206Z,94394.81
2023-08-02T09:22:44.112Z,94372.84
2023-08-02T09:25:48.016Z,94379.88
2023-08-02T09:29:01.429Z,94374.09
2023-08-02T09:32:09.334Z,94384.25
2023-08-02T09:35:12.337Z,94368.97
2023-08-02T09:38:15.267Z,94379.19
2023-08-02T09:44:30.719Z,94381.44
2023-08-02T09:47:33.378Z,94380.66
2023-08-02T09:50:38.423Z,94375.09
2023-08-02T09:53:41.554Z,94372.91
2023-08-02T09:56:45.799Z,94345.44
2023-08-02T09:59:48.746Z,94355.25
2023-08-02T10:02:52.028Z,94350.69
2023-08-02T10:05:57.976Z,94346.09
2023-08-02T10:09:06.139Z,94342.09
2023-08-02T10:12:12.972Z,94346.78
2023-08-02T10:15:15.911Z,94357.84
2023-08-02T10:18:19.109Z,94352.81
2023-08-02T10:21:23.503Z,94340.56
2023-08-02T10:24:27.665Z,94329.63
2023-08-02T10:27:33.226Z,94318.63
2023-08-02T10:30:36.941Z,94326.09
2023-08-02T10:33:39.645Z,94321.28
2023-08-02T10:36:56.003Z,94308.03
2023-08-02T10:39:58.629Z,94311.97
2023-08-02T10:43:07.961Z,94309.81
2023-08-02T10:46:17.535Z,94320.66
2023-08-02T10:49:44.255Z,94316.44
2023-08-02T10:52:46.864Z,94301.81
2023-08-02T10:56:06.930Z,94298.53
2023-08-02T10:59:10.852Z,94298.13
2023-08-02T11:02:14.216Z,94294.72
2023-08-02T11:05:20.370Z,94292.16
2023-08-02T11:08:23.015Z,94266.94
2023-08-02T11:11:34.017Z,94283.97
2023-08-02T11:14:38.512Z,94283.34
2023-08-02T11:17:54.587Z,94249.72
2023-08-02T11:21:08.288Z,94262.38
2023-08-02T11:24:10.877Z,94274.44
2023-08-02T11:27:19.903Z,94272.19
2023-08-02T11:30:30.008Z,94256.78
2023-08-02T11:33:33.915Z,94265.22
2023-08-02T11:36:36.494Z,94250.50
2023-08-02T11:39:39.645Z,94230.28
2023-08-02T11:42:51.236Z,94213.03
2023-08-02T11:45:56.174Z,94215.44
2023-08-02T11:49:08.006Z,94191.25
2023-08-02T11:52:10.773Z,94190.44
2023-08-02T11:55:14.308Z,94202.19
2023-08-02T11:58:17.109Z,94184.81
2023-08-02T12:01:22.276Z,94192.75
2023-08-02T12:04:25.013Z,94175.44
2023-08-02T12:07:29.383Z,94177.22
2023-08-02T12:10:32.009Z,94186.09
2023-08-02T12:13:34.736Z,94176.38
2023-08-02T12:16:43.195Z,94156.75
2023-08-02T12:19:48.022Z,94173.53
2023-08-02T12:22:51.966Z,94154.16
2023-08-02T12:45:17.229Z,94185.88
2023-08-02T12:48:21.193Z,94187.31
2023-08-02T12:51:23.749Z,94179.31
2023-08-02T12:54:26.733Z,94170.50
2023-08-02T12:57:29.441Z,94179.44
2023-08-02T13:00:33.550Z,94174.81
2023-08-02T13:03:36.629Z,94176.78
2023-08-02T13:06:47.146Z,94167.47
2023-08-02T13:09:58.049Z,94166.31
2023-08-02T13:13:00.756Z,94161.66
2023-08-02T13:16:04.779Z,94163.25
2023-08-02T13:19:07.553Z,94154.72
2023-08-02T13:22:10.743Z,94160.94
2023-08-02T13:25:13.476Z,94158.63
2023-08-02T13:28:17.504Z,94154.75
2023-08-02T13:31:21.581Z,94152.41
2023-08-02T13:34:24.356Z,94142.69
2023-08-02T13:37:27.006Z,94150.78
2023-08-02T13:40:29.724Z,94135.69
2023-08-02T13:43:32.553Z,94104.28
2023-08-02T13:46:36.976Z,94124.84
2023-08-02T13:49:39.805Z,94105.47
2023-08-02T14:00:27.016Z,94097.34
2023-08-02T14:03:31.521Z,94088.00
2023-08-02T14:06:44.936Z,94081.47
2023-08-02T14:09:47.947Z,94075.22
2023-08-02T14:12:50.694Z,94074.38
2023-08-02T14:15:53.418Z,94065.03
2023-08-02T14:18:57.396Z,94063.81
2023-08-02T14:21:59.976Z,94072.03
2023-08-02T14:25:02.952Z,94087.97
2023-08-02T14:28:06.657Z,94098.09
2023-08-02T14:31:09.554Z,94100.84
2023-08-02T14:34:13.868Z,94100.03
2023-08-02T14:37:17.054Z,94090.00
2023-08-02T14:40:22.851Z,94087.63
2023-08-02T14:43:25.647Z,94078.69
2023-08-02T14:46:28.304Z,94067.44
2023-08-02T14:49:32.567Z,94070.53
2023-08-02T14:52:37.609Z,94069.75
2023-08-02T14:55:40.356Z,94058.16
2023-08-02T14:58:43.091Z,94067.44
2023-08-02T15:01:46.144Z,94051.91
2023-08-02T15:04:58.161Z,94057.00
2023-08-02T15:11:17.778Z,94038.34
2023-08-02T15:14:40.927Z,94035.25
2023-08-02T15:17:56.716Z,94023.22
2023-08-02T15:21:00.966Z,94023.59
2023-08-02T15:24:03.608Z,94025.16
2023-08-02T15:27:07.032Z,94014.66
2023-08-02T15:30:10.340Z,94014.66
2023-08-02T15:33:13.466Z,94004.94
2023-08-02T15:36:17.917Z,93997.19
2023-08-02T15:39:20.784Z,93994.81
2023-08-02T15:42:25.431Z,93995.59
2023-08-02T15:45:28.294Z,93988.63
2023-08-02T15:48:31.177Z,93985.47
2023-08-02T15:51:35.257Z,93988.19
2023-08-02T15:54:38.490Z,93968.88
2023-08-02T15:57:41.248Z,93990.97
2023-08-02T16:00:46.476Z,93993.69
2023-08-02T16:03:52.206Z,93989.03
2023-08-02T16:06:56.693Z,93978.16
2023-08-02T16:09:59.730Z,93996.78
2023-08-02T16:13:02.495Z,93994.06
2023-08-02T16:16:05.106Z,93982.81
2023-08-02T16:19:07.752Z,93973.50
2023-08-02T16:22:11.697Z,93950.56
2023-08-02T16:28:31.042Z,93931.59
2023-08-02T16:42:19.125Z,93906.00
2023-08-02T16:45:21.930Z,93928.44
2023-08-02T16:48:24.659Z,93928.88
2023-08-02T16:51:28.313Z,93938.56
2023-08-02T16:54:32.594Z,93940.50
2023-08-02T16:57:36.973Z,93933.50
2023-08-02T17:00:45.554Z,93942.75
2023-08-02T17:03:56.654Z,93949.38
2023-08-02T17:10:48.646Z,93940.47
2023-08-02T17:13:51.422Z,93939.69
2023-08-02T17:16:54.587Z,93936.97
2023-08-02T17:19:57.236Z,93947.09
2023-08-02T17:23:20.292Z,93944.38
2023-08-02T17:26:41.035Z,93928.81
2023-08-02T17:29:43.741Z,93921.81
2023-08-02T17:32:46.684Z,93934.22
2023-08-02T17:35:53.129Z,93934.22
2023-08-02T17:42:26.019Z,93915.22
2023-08-02T17:45:32.782Z,93914.81
2023-08-02T17:48:40.997Z,93923.34
2023-08-02T17:51:45.501Z,93926.88
2023-08-02T17:54:48.314Z,93907.50
2023-08-02T17:57:52.155Z,93907.84
2023-08-02T18:00:54.878Z,93894.28
2023-08-02T18:03:57.811Z,93907.50
2023-08-02T18:07:01.520Z,93908.25
2023-08-02T18:14:12.620Z,93904.34
2023-08-02T18:20:35.537Z,93912.09
2023-08-02T18:23:38.253Z,93907.41
2023-08-02T18:26:40.888Z,93898.09
2023-08-02T18:29:54.028Z,93896.16
2023-08-02T18:33:05.648Z,93894.97
2023-08-02T18:36:13.566Z,93898.50
2023-08-02T18:39:16.309Z,93895.00
2023-08-02T18:42:20.030Z,93917.47
2023-08-02T18:49:43.089Z,93915.19
2023-08-02T18:52:46.129Z,93916.38
2023-08-02T18:55:55.746Z,93907.41
2023-08-02T18:59:02.994Z,93910.50
2023-08-02T19:02:06.634Z,93922.19
2023-08-02T19:12:24.501Z,93946.97
2023-08-02T19:15:29.081Z,93964.88
2023-08-02T19:18:32.156Z,93947.75
2023-08-02T19:21:36.301Z,93963.28
2023-08-02T19:24:39.405Z,93962.16
2023-08-02T19:27:42.882Z,93955.91
2023-08-02T19:30:48.737Z,93961.69
2023-08-02T19:33:54.186Z,93967.56
2023-08-02T19:36:59.881Z,93965.66
2023-08-02T19:40:05.382Z,93974.16
2023-08-02T19:43:14.961Z,94005.66
2023-08-02T19:46:22.096Z,94010.63
2023-08-02T19:49:26.191Z,94026.59
2023-08-02T19:52:30.861Z,94014.56
2023-08-02T19:55:34.340Z,94038.25
2023-08-02T19:58:40.003Z,94016.06
2023-08-02T20:01:46.348Z,94000.56
2023-08-02T20:04:49.079Z,93942.31
2023-08-02T20:07:53.192Z,93889.19
2023-08-02T20:11:00.271Z,93870.44
2023-08-02T20:14:03.724Z,93868.94
2023-08-02T20:17:09.722Z,93868.13
2023-08-02T20:20:15.448Z,93858.06
2023-08-02T20:23:23.984Z,93863.50
2023-08-02T20:26:32.402Z,93853.00
2023-08-02T20:29:35.626Z,93858.44
2023-08-02T20:32:41.654Z,93848.75
2023-08-02T20:35:46.142Z,93866.97
2023-08-02T20:38:51.092Z,93862.34
2023-08-02T20:41:54.546Z,93872.03
2023-08-02T20:44:57.193Z,93900.75
2023-08-02T20:48:04.845Z,93898.03
2023-08-02T20:51:07.901Z,93922.91
2023-08-02T20:54:12.208Z,93931.84
2023-08-02T20:57:15.711Z,93934.59
2023-08-02T21:00:18.977Z,93942.84
2023-08-02T21:03:21.889Z,93958.31
2023-08-02T21:06:24.733Z,93949.84
2023-08-02T21:09:28.762Z,93955.59
2023-08-02T21:12:31.890Z,93960.28
2023-08-02T21:15:34.883Z,93958.34
2023-08-02T21:18:40.191Z,93975.84
2023-08-02T21:21:43.060Z,93977.03
2023-08-02T21:24:47.802Z,93977.03
2023-08-02T21:27:50.563Z,93975.84
2023-08-02T21:30:54.189Z,93978.59
2023-08-02T21:33:57.605Z,93980.56
2023-08-02T21:37:00.506Z,93987.16
2023-08-02T21:40:06.118Z,93998.81
2023-08-02T21:43:18.958Z,94005.00
2023-08-02T21:46:23.702Z,94013.16
2023-08-02T21:49:26.411Z,94008.16
2023-08-02T21:52:29.088Z,94007.72
2023-08-02T21:55:37.587Z,94011.63
2023-08-02T21:58:56.000Z,94039.19
2023-08-02T22:01:58.714Z,94038.03
2023-08-02T22:05:02.026Z,94037.28
2023-08-02T22:08:10.381Z,94041.94
2023-08-02T22:11:16.882Z,94057.06
2023-08-02T22:14:19.828Z,94050.13
2023-08-02T22:17:23.625Z,94041.94
2023-08-02T22:20:26.571Z,94048.91
2023-08-02T22:23:29.599Z,94048.91
2023-08-02T22:26:33.906Z,94038.47
2023-08-02T22:29:46.232Z,94043.91
2023-08-02T22:32:57.041Z,94041.19
2023-08-02T22:36:00.362Z,94047.78
2023-08-02T22:39:03.628Z,94052.09
2023-08-02T22:42:09.219Z,94054.81
2023-08-02T22:45:12.191Z,94068.41
2023-08-02T22:48:53.073Z,94080.44
2023-08-02T22:51:37.696Z,94075.00
2023-08-02T22:54:40.383Z,94084.31
2023-08-02T22:57:45.850Z,94073.44
2023-08-02T23:00:48.682Z,94072.69
2023-08-02T23:03:51.523Z,94071.91
2023-08-02T23:06:54.395Z,94068.03
2023-08-02T23:10:01.583Z,94066.91
2023-08-02T23:13:10.807Z,94071.16
2023-08-02T23:16:20.804Z,94072.31
2023-08-02T23:19:23.733Z,94075.06
2023-08-02T23:22:26.490Z,94073.47
2023-08-02T23:25:29.444Z,94080.88
2023-08-02T23:28:34.908Z,94087.13
2023-08-02T23:31:40.385Z,94096.44
2023-08-02T23:34:43.118Z,94109.22
2023-08-02T23:37:45.775Z,94099.53
2023-08-02T23:40:48.379Z,94098.34
2023-08-02T23:43:52.489Z,94110.75
2023-08-02T23:46:55.125Z,94108.09
2023-08-02T23:49:57.753Z,94121.63
2023-08-02T23:53:00.477Z,94128.28
2023-08-02T23:56:03.210Z,94129.44
2023-08-02T23:59:07.281Z,94148.44
